sensor_id;sensor_type;location;lat;lon;timestamp;temperature;humidity
9393;DHT22;4736;52.508;13.422;2022-07-06T00:02:40;17.80;1.00
9393;DHT22;4736;52.508;13.422;2022-07-06T00:05:43;17.80;1.00
9393;DHT22;4736;52.508;13.422;2022-07-06T00:08:45;17.70;1.00
9393;DHT22;4736;52.508;13.422;2022-07-06T00:11:53;17.70;1.00
9393;DHT22;4736;52.508;13.422;2022-07-06T00:14:56;17.70;1.00
9393;DHT22;4736;52.508;13.422;2022-07-06T00:18:02;17.60;1.00
9393;DHT22;4736;52.508;13.422;2022-07-06T00:21:05;17.60;1.00
9393;DHT22;4736;52.508;13.422;2022-07-06T00:24:08;17.60;1.00
9393;DHT22;4736;52.508;13.422;2022-07-06T00:27:12;17.50;1.00
9393;DHT22;4736;52.508;13.422;2022-07-06T00:30:15;17.50;1.00
9393;DHT22;4736;52.508;13.422;2022-07-06T00:33:18;17.50;1.00
9393;DHT22;4736;52.508;13.422;2022-07-06T00:36:21;17.40;1.00
9393;DHT22;4736;52.508;13.422;2022-07-06T00:39:24;17.40;1.00
9393;DHT22;4736;52.508;13.422;2022-07-06T00:42:40;17.40;1.00
9393;DHT22;4736;52.508;13.422;2022-07-06T00:45:43;17.40;1.00
9393;DHT22;4736;52.508;13.422;2022-07-06T00:48:46;17.30;1.00
9393;DHT22;4736;52.508;13.422;2022-07-06T00:51:49;17.30;1.00
9393;DHT22;4736;52.508;13.422;2022-07-06T00:54:52;17.30;1.00
9393;DHT22;4736;52.508;13.422;2022-07-06T00:58:09;17.30;1.00
9393;DHT22;4736;52.508;13.422;2022-07-06T01:01:12;17.30;1.00
9393;DHT22;4736;52.508;13.422;2022-07-06T01:04:15;17.30;1.00
9393;DHT22;4736;52.508;13.422;2022-07-06T01:07:18;17.30;1.00
9393;DHT22;4736;52.508;13.422;2022-07-06T01:10:21;17.40;1.00
9393;DHT22;4736;52.508;13.422;2022-07-06T01:13:27;17.40;1.00
9393;DHT22;4736;52.508;13.422;2022-07-06T01:16:31;17.40;1.00
9393;DHT22;4736;52.508;13.422;2022-07-06T01:19:34;17.40;1.00
9393;DHT22;4736;52.508;13.422;2022-07-06T01:22:38;17.40;1.00
9393;DHT22;4736;52.508;13.422;2022-07-06T01:25:41;17.40;1.00
9393;DHT22;4736;52.508;13.422;2022-07-06T01:28:49;17.40;1.00
9393;DHT22;4736;52.508;13.422;2022-07-06T01:31:52;17.40;1.00
9393;DHT22;4736;52.508;13.422;2022-07-06T01:34:55;17.30;1.00
9393;DHT22;4736;52.508;13.422;2022-07-06T01:38:09;17.30;1.00
9393;DHT22;4736;52.508;13.422;2022-07-06T01:41:12;17.30;1.00
9393;DHT22;4736;52.508;13.422;2022-07-06T01:44:16;17.20;1.00
9393;DHT22;4736;52.508;13.422;2022-07-06T01:47:19;17.20;1.00
9393;DHT22;4736;52.508;13.422;2022-07-06T01:50:22;17.20;1.00
9393;DHT22;4736;52.508;13.422;2022-07-06T01:53:27;17.20;1.00
9393;DHT22;4736;52.508;13.422;2022-07-06T01:56:29;17.20;1.00
9393;DHT22;4736;52.508;13.422;2022-07-06T01:59:32;17.20;1.00
9393;DHT22;4736;52.508;13.422;2022-07-06T02:02:36;17.20;1.00
9393;DHT22;4736;52.508;13.422;2022-07-06T02:05:40;17.20;1.00
9393;DHT22;4736;52.508;13.422;2022-07-06T02:08:44;17.20;1.00
9393;DHT22;4736;52.508;13.422;2022-07-06T02:11:47;17.30;1.00
9393;DHT22;4736;52.508;13.422;2022-07-06T02:14:50;17.30;1.00
9393;DHT22;4736;52.508;13.422;2022-07-06T02:17:53;17.40;1.00
9393;DHT22;4736;52.508;13.422;2022-07-06T02:20:56;17.40;1.00
9393;DHT22;4736;52.508;13.422;2022-07-06T02:24:04;17.40;1.00
9393;DHT22;4736;52.508;13.422;2022-07-06T02:27:07;17.30;1.00
9393;DHT22;4736;52.508;13.422;2022-07-06T02:30:10;17.30;1.00
9393;DHT22;4736;52.508;13.422;2022-07-06T02:33:13;17.20;1.00
9393;DHT22;4736;52.508;13.422;2022-07-06T02:36:16;17.20;1.00
9393;DHT22;4736;52.508;13.422;2022-07-06T02:39:20;17.10;1.00
9393;DHT22;4736;52.508;13.422;2022-07-06T02:42:23;17.00;1.00
9393;DHT22;4736;52.508;13.422;2022-07-06T02:45:27;16.90;1.00
9393;DHT22;4736;52.508;13.422;2022-07-06T02:48:30;16.70;1.00
9393;DHT22;4736;52.508;13.422;2022-07-06T02:51:33;16.60;1.00
9393;DHT22;4736;52.508;13.422;2022-07-06T02:54:37;16.50;1.00
9393;DHT22;4736;52.508;13.422;2022-07-06T02:57:40;16.30;1.00
9393;DHT22;4736;52.508;13.422;2022-07-06T03:00:52;16.30;1.00
9393;DHT22;4736;52.508;13.422;2022-07-06T03:03:55;16.20;1.00
9393;DHT22;4736;52.508;13.422;2022-07-06T03:06:58;16.10;1.00
9393;DHT22;4736;52.508;13.422;2022-07-06T03:10:03;16.00;1.00
9393;DHT22;4736;52.508;13.422;2022-07-06T03:13:06;16.00;1.00
9393;DHT22;4736;52.508;13.422;2022-07-06T03:16:09;15.90;1.00
9393;DHT22;4736;52.508;13.422;2022-07-06T03:19:13;15.90;1.00
9393;DHT22;4736;52.508;13.422;2022-07-06T03:22:18;15.90;1.00
9393;DHT22;4736;52.508;13.422;2022-07-06T03:25:22;15.90;1.00
9393;DHT22;4736;52.508;13.422;2022-07-06T03:28:25;15.90;1.00
9393;DHT22;4736;52.508;13.422;2022-07-06T03:31:32;15.90;1.00
9393;DHT22;4736;52.508;13.422;2022-07-06T03:34:37;15.90;1.00
9393;DHT22;4736;52.508;13.422;2022-07-06T03:37:40;15.90;1.00
9393;DHT22;4736;52.508;13.422;2022-07-06T03:40:45;15.80;1.00
9393;DHT22;4736;52.508;13.422;2022-07-06T03:43:48;15.80;1.00
9393;DHT22;4736;52.508;13.422;2022-07-06T03:46:50;15.80;1.00
9393;DHT22;4736;52.508;13.422;2022-07-06T03:49:57;15.70;1.00
9393;DHT22;4736;52.508;13.422;2022-07-06T03:53:00;15.80;1.00
9393;DHT22;4736;52.508;13.422;2022-07-06T03:56:04;15.70;1.00
9393;DHT22;4736;52.508;13.422;2022-07-06T03:59:25;15.70;1.00
9393;DHT22;4736;52.508;13.422;2022-07-06T04:02:28;15.70;1.00
9393;DHT22;4736;52.508;13.422;2022-07-06T04:05:30;15.80;1.00
9393;DHT22;4736;52.508;13.422;2022-07-06T04:08:33;15.80;1.00
9393;DHT22;4736;52.508;13.422;2022-07-06T04:11:38;15.90;1.00
9393;DHT22;4736;52.508;13.422;2022-07-06T04:14:40;15.90;1.00
9393;DHT22;4736;52.508;13.422;2022-07-06T04:17:46;15.90;1.00
9393;DHT22;4736;52.508;13.422;2022-07-06T04:20:55;16.00;1.00
9393;DHT22;4736;52.508;13.422;2022-07-06T04:24:02;16.00;1.00
9393;DHT22;4736;52.508;13.422;2022-07-06T04:27:06;16.10;1.00
9393;DHT22;4736;52.508;13.422;2022-07-06T04:30:10;16.20;1.00
9393;DHT22;4736;52.508;13.422;2022-07-06T04:33:13;16.20;1.00
9393;DHT22;4736;52.508;13.422;2022-07-06T04:36:16;16.30;1.00
9393;DHT22;4736;52.508;13.422;2022-07-06T04:39:19;16.30;1.00
9393;DHT22;4736;52.508;13.422;2022-07-06T04:42:23;16.30;1.00
9393;DHT22;4736;52.508;13.422;2022-07-06T04:45:27;16.20;1.00
9393;DHT22;4736;52.508;13.422;2022-07-06T04:48:30;16.20;1.00
9393;DHT22;4736;52.508;13.422;2022-07-06T04:51:33;16.30;1.00
9393;DHT22;4736;52.508;13.422;2022-07-06T04:54:36;16.40;1.00
9393;DHT22;4736;52.508;13.422;2022-07-06T04:57:41;16.50;1.00
9393;DHT22;4736;52.508;13.422;2022-07-06T05:00:44;16.50;1.00
9393;DHT22;4736;52.508;13.422;2022-07-06T05:03:47;16.60;1.00
9393;DHT22;4736;52.508;13.422;2022-07-06T05:06:49;16.70;1.00
9393;DHT22;4736;52.508;13.422;2022-07-06T05:09:52;16.90;1.00
9393;DHT22;4736;52.508;13.422;2022-07-06T05:12:57;17.00;1.00
9393;DHT22;4736;52.508;13.422;2022-07-06T05:16:00;17.20;1.00
9393;DHT22;4736;52.508;13.422;2022-07-06T05:19:03;17.40;1.00
9393;DHT22;4736;52.508;13.422;2022-07-06T05:22:06;17.50;1.00
9393;DHT22;4736;52.508;13.422;2022-07-06T05:25:09;17.70;1.00
9393;DHT22;4736;52.508;13.422;2022-07-06T05:28:17;18.10;1.00
9393;DHT22;4736;52.508;13.422;2022-07-06T05:31:20;18.20;1.00
9393;DHT22;4736;52.508;13.422;2022-07-06T05:34:23;18.40;1.00
9393;DHT22;4736;52.508;13.422;2022-07-06T05:37:26;18.50;1.00
9393;DHT22;4736;52.508;13.422;2022-07-06T05:40:29;18.60;1.00
9393;DHT22;4736;52.508;13.422;2022-07-06T05:43:36;18.80;1.00
9393;DHT22;4736;52.508;13.422;2022-07-06T05:46:39;18.90;1.00
9393;DHT22;4736;52.508;13.422;2022-07-06T05:49:42;19.10;1.00
9393;DHT22;4736;52.508;13.422;2022-07-06T05:53:10;19.30;1.00
9393;DHT22;4736;52.508;13.422;2022-07-06T05:56:26;19.50;1.00
9393;DHT22;4736;52.508;13.422;2022-07-06T05:59:30;19.70;1.00
9393;DHT22;4736;52.508;13.422;2022-07-06T06:02:37;19.70;1.00
9393;DHT22;4736;52.508;13.422;2022-07-06T06:05:41;20.00;1.00
9393;DHT22;4736;52.508;13.422;2022-07-06T06:08:56;20.30;1.00
9393;DHT22;4736;52.508;13.422;2022-07-06T06:11:59;20.40;1.00
9393;DHT22;4736;52.508;13.422;2022-07-06T06:15:04;20.50;1.00
9393;DHT22;4736;52.508;13.422;2022-07-06T06:18:07;20.80;1.00
9393;DHT22;4736;52.508;13.422;2022-07-06T06:21:10;20.90;1.00
9393;DHT22;4736;52.508;13.422;2022-07-06T06:24:13;21.00;1.00
9393;DHT22;4736;52.508;13.422;2022-07-06T06:27:16;21.10;1.00
9393;DHT22;4736;52.508;13.422;2022-07-06T06:30:21;21.30;1.00
9393;DHT22;4736;52.508;13.422;2022-07-06T06:33:24;21.30;1.00
9393;DHT22;4736;52.508;13.422;2022-07-06T06:36:27;21.10;1.00
9393;DHT22;4736;52.508;13.422;2022-07-06T06:39:31;21.10;1.00
9393;DHT22;4736;52.508;13.422;2022-07-06T06:42:37;21.30;1.00
9393;DHT22;4736;52.508;13.422;2022-07-06T06:45:42;21.40;1.00
9393;DHT22;4736;52.508;13.422;2022-07-06T06:48:46;21.50;1.00
9393;DHT22;4736;52.508;13.422;2022-07-06T06:51:49;21.50;1.00
9393;DHT22;4736;52.508;13.422;2022-07-06T06:54:51;21.60;1.00
9393;DHT22;4736;52.508;13.422;2022-07-06T06:57:56;22.00;1.00
9393;DHT22;4736;52.508;13.422;2022-07-06T07:01:00;21.90;1.00
9393;DHT22;4736;52.508;13.422;2022-07-06T07:04:03;21.80;1.00
9393;DHT22;4736;52.508;13.422;2022-07-06T07:07:08;21.30;1.00
9393;DHT22;4736;52.508;13.422;2022-07-06T07:10:11;21.00;1.00
9393;DHT22;4736;52.508;13.422;2022-07-06T07:13:14;21.00;1.00
9393;DHT22;4736;52.508;13.422;2022-07-06T07:16:18;20.90;1.00
9393;DHT22;4736;52.508;13.422;2022-07-06T07:19:21;21.20;1.00
9393;DHT22;4736;52.508;13.422;2022-07-06T07:22:25;21.40;1.00
9393;DHT22;4736;52.508;13.422;2022-07-06T07:25:29;21.00;1.00
9393;DHT22;4736;52.508;13.422;2022-07-06T07:28:32;20.80;1.00
9393;DHT22;4736;52.508;13.422;2022-07-06T07:31:36;21.20;1.00
9393;DHT22;4736;52.508;13.422;2022-07-06T07:34:40;20.90;1.00
9393;DHT22;4736;52.508;13.422;2022-07-06T07:37:43;20.90;1.00
9393;DHT22;4736;52.508;13.422;2022-07-06T07:40:46;20.60;1.00
9393;DHT22;4736;52.508;13.422;2022-07-06T07:43:49;20.30;1.00
9393;DHT22;4736;52.508;13.422;2022-07-06T07:46:54;20.30;1.00
9393;DHT22;4736;52.508;13.422;2022-07-06T07:49:56;20.50;1.00
9393;DHT22;4736;52.508;13.422;2022-07-06T07:52:59;20.80;1.00
9393;DHT22;4736;52.508;13.422;2022-07-06T07:56:03;20.80;1.00
9393;DHT22;4736;52.508;13.422;2022-07-06T07:59:06;20.80;1.00
9393;DHT22;4736;52.508;13.422;2022-07-06T08:02:10;20.80;1.00
9393;DHT22;4736;52.508;13.422;2022-07-06T08:05:13;20.90;1.00
9393;DHT22;4736;52.508;13.422;2022-07-06T08:08:17;20.50;1.00
9393;DHT22;4736;52.508;13.422;2022-07-06T08:11:20;20.60;1.00
9393;DHT22;4736;52.508;13.422;2022-07-06T08:14:23;20.50;1.00
9393;DHT22;4736;52.508;13.422;2022-07-06T08:17:27;20.50;1.00
9393;DHT22;4736;52.508;13.422;2022-07-06T08:20:31;20.20;1.00
9393;DHT22;4736;52.508;13.422;2022-07-06T08:23:34;20.20;1.00
9393;DHT22;4736;52.508;13.422;2022-07-06T08:26:40;20.40;1.00
9393;DHT22;4736;52.508;13.422;2022-07-06T08:29:43;20.50;1.00
9393;DHT22;4736;52.508;13.422;2022-07-06T08:32:47;20.60;1.00
9393;DHT22;4736;52.508;13.422;2022-07-06T08:36:08;20.60;1.00
9393;DHT22;4736;52.508;13.422;2022-07-06T08:39:11;20.40;1.00
9393;DHT22;4736;52.508;13.422;2022-07-06T08:42:16;20.40;1.00
9393;DHT22;4736;52.508;13.422;2022-07-06T08:45:20;20.60;1.00
9393;DHT22;4736;52.508;13.422;2022-07-06T08:48:24;20.80;1.00
9393;DHT22;4736;52.508;13.422;2022-07-06T08:51:28;20.90;1.00
9393;DHT22;4736;52.508;13.422;2022-07-06T08:54:31;20.80;1.00
9393;DHT22;4736;52.508;13.422;2022-07-06T08:57:34;20.80;1.00
9393;DHT22;4736;52.508;13.422;2022-07-06T09:00:37;20.60;1.00
9393;DHT22;4736;52.508;13.422;2022-07-06T09:03:43;20.60;1.00
9393;DHT22;4736;52.508;13.422;2022-07-06T09:06:49;20.50;1.00
9393;DHT22;4736;52.508;13.422;2022-07-06T09:09:53;20.40;1.00
9393;DHT22;4736;52.508;13.422;2022-07-06T09:13:02;20.40;1.00
9393;DHT22;4736;52.508;13.422;2022-07-06T09:16:10;20.50;1.00
9393;DHT22;4736;52.508;13.422;2022-07-06T09:19:35;20.40;1.00
9393;DHT22;4736;52.508;13.422;2022-07-06T09:22:39;20.40;1.00
9393;DHT22;4736;52.508;13.422;2022-07-06T09:25:47;20.50;1.00
9393;DHT22;4736;52.508;13.422;2022-07-06T09:28:52;20.50;1.00
9393;DHT22;4736;52.508;13.422;2022-07-06T09:31:58;20.60;1.00
9393;DHT22;4736;52.508;13.422;2022-07-06T09:35:02;20.70;1.00
9393;DHT22;4736;52.508;13.422;2022-07-06T09:38:15;20.50;1.00
9393;DHT22;4736;52.508;13.422;2022-07-06T09:41:30;20.50;1.00
9393;DHT22;4736;52.508;13.422;2022-07-06T09:44:36;20.30;1.00
9393;DHT22;4736;52.508;13.422;2022-07-06T09:47:46;20.30;1.00
9393;DHT22;4736;52.508;13.422;2022-07-06T09:50:52;20.20;1.00
9393;DHT22;4736;52.508;13.422;2022-07-06T09:53:57;20.20;1.00
9393;DHT22;4736;52.508;13.422;2022-07-06T09:57:01;20.10;1.00
9393;DHT22;4736;52.508;13.422;2022-07-06T10:00:11;20.30;1.00
9393;DHT22;4736;52.508;13.422;2022-07-06T10:03:16;20.40;1.00
9393;DHT22;4736;52.508;13.422;2022-07-06T10:06:20;20.50;1.00
9393;DHT22;4736;52.508;13.422;2022-07-06T10:09:25;20.60;1.00
9393;DHT22;4736;52.508;13.422;2022-07-06T10:12:28;20.60;1.00
9393;DHT22;4736;52.508;13.422;2022-07-06T10:15:31;20.70;1.00
9393;DHT22;4736;52.508;13.422;2022-07-06T10:18:35;20.80;1.00
9393;DHT22;4736;52.508;13.422;2022-07-06T10:21:41;20.90;1.00
9393;DHT22;4736;52.508;13.422;2022-07-06T10:24:45;20.80;1.00
9393;DHT22;4736;52.508;13.422;2022-07-06T10:27:52;20.70;1.00
9393;DHT22;4736;52.508;13.422;2022-07-06T10:30:55;20.90;1.00
9393;DHT22;4736;52.508;13.422;2022-07-06T10:34:00;21.00;1.00
9393;DHT22;4736;52.508;13.422;2022-07-06T10:37:05;21.10;1.00
9393;DHT22;4736;52.508;13.422;2022-07-06T10:40:09;21.00;1.00
9393;DHT22;4736;52.508;13.422;2022-07-06T10:43:42;21.00;1.00
9393;DHT22;4736;52.508;13.422;2022-07-06T10:46:53;21.10;1.00
9393;DHT22;4736;52.508;13.422;2022-07-06T10:49:59;21.00;1.00
9393;DHT22;4736;52.508;13.422;2022-07-06T10:53:10;21.20;1.00
9393;DHT22;4736;52.508;13.422;2022-07-06T10:56:13;21.10;1.00
9393;DHT22;4736;52.508;13.422;2022-07-06T10:59:17;21.30;1.00
9393;DHT22;4736;52.508;13.422;2022-07-06T11:02:22;21.40;1.00
9393;DHT22;4736;52.508;13.422;2022-07-06T11:05:41;21.50;1.00
9393;DHT22;4736;52.508;13.422;2022-07-06T11:09:07;21.80;1.00
9393;DHT22;4736;52.508;13.422;2022-07-06T11:12:16;22.00;1.00
9393;DHT22;4736;52.508;13.422;2022-07-06T11:19:10;22.20;1.00
9393;DHT22;4736;52.508;13.422;2022-07-06T11:22:15;21.80;1.00
9393;DHT22;4736;52.508;13.422;2022-07-06T11:25:32;21.60;1.00
9393;DHT22;4736;52.508;13.422;2022-07-06T11:28:36;21.40;1.00
9393;DHT22;4736;52.508;13.422;2022-07-06T11:31:41;21.20;1.00
9393;DHT22;4736;52.508;13.422;2022-07-06T11:34:44;21.00;1.00
9393;DHT22;4736;52.508;13.422;2022-07-06T11:37:47;21.00;1.00
9393;DHT22;4736;52.508;13.422;2022-07-06T11:40:54;21.10;1.00
9393;DHT22;4736;52.508;13.422;2022-07-06T11:44:00;21.20;1.00
9393;DHT22;4736;52.508;13.422;2022-07-06T11:47:04;21.40;1.00
9393;DHT22;4736;52.508;13.422;2022-07-06T11:50:08;21.50;1.00
9393;DHT22;4736;52.508;13.422;2022-07-06T11:53:14;21.70;1.00
9393;DHT22;4736;52.508;13.422;2022-07-06T11:56:19;21.80;1.00
9393;DHT22;4736;52.508;13.422;2022-07-06T11:59:25;21.70;1.00
9393;DHT22;4736;52.508;13.422;2022-07-06T12:02:29;21.60;1.00
9393;DHT22;4736;52.508;13.422;2022-07-06T12:05:32;21.50;1.00
9393;DHT22;4736;52.508;13.422;2022-07-06T12:08:41;21.70;1.00
9393;DHT22;4736;52.508;13.422;2022-07-06T12:11:46;21.80;1.00
9393;DHT22;4736;52.508;13.422;2022-07-06T12:14:52;22.00;1.00
9393;DHT22;4736;52.508;13.422;2022-07-06T12:17:55;22.10;1.00
9393;DHT22;4736;52.508;13.422;2022-07-06T12:20:58;22.10;1.00
9393;DHT22;4736;52.508;13.422;2022-07-06T12:24:05;21.90;1.00
9393;DHT22;4736;52.508;13.422;2022-07-06T12:27:12;21.70;1.00
9393;DHT22;4736;52.508;13.422;2022-07-06T12:30:16;21.70;1.00
9393;DHT22;4736;52.508;13.422;2022-07-06T12:33:24;21.80;1.00
9393;DHT22;4736;52.508;13.422;2022-07-06T12:36:30;22.00;1.00
9393;DHT22;4736;52.508;13.422;2022-07-06T12:39:42;21.90;1.00
9393;DHT22;4736;52.508;13.422;2022-07-06T12:42:47;22.20;1.00
9393;DHT22;4736;52.508;13.422;2022-07-06T12:45:50;22.50;1.00
9393;DHT22;4736;52.508;13.422;2022-07-06T12:48:54;22.70;1.00
9393;DHT22;4736;52.508;13.422;2022-07-06T12:51:59;22.50;1.00
9393;DHT22;4736;52.508;13.422;2022-07-06T12:55:03;22.40;1.00
9393;DHT22;4736;52.508;13.422;2022-07-06T12:58:18;22.50;1.00
9393;DHT22;4736;52.508;13.422;2022-07-06T13:01:21;22.50;1.00
9393;DHT22;4736;52.508;13.422;2022-07-06T13:04:24;22.40;1.00
9393;DHT22;4736;52.508;13.422;2022-07-06T13:07:27;22.70;1.00
9393;DHT22;4736;52.508;13.422;2022-07-06T13:10:33;22.70;1.00
9393;DHT22;4736;52.508;13.422;2022-07-06T13:13:52;22.80;1.00
9393;DHT22;4736;52.508;13.422;2022-07-06T13:16:55;22.90;1.00
9393;DHT22;4736;52.508;13.422;2022-07-06T13:19:58;22.80;1.00
9393;DHT22;4736;52.508;13.422;2022-07-06T13:23:01;22.80;1.00
9393;DHT22;4736;52.508;13.422;2022-07-06T13:26:05;22.60;1.00
9393;DHT22;4736;52.508;13.422;2022-07-06T13:29:10;22.70;1.00
9393;DHT22;4736;52.508;13.422;2022-07-06T13:32:13;22.80;1.00
9393;DHT22;4736;52.508;13.422;2022-07-06T13:35:17;22.70;1.00
9393;DHT22;4736;52.508;13.422;2022-07-06T13:38:20;22.80;1.00
9393;DHT22;4736;52.508;13.422;2022-07-06T13:41:23;22.80;1.00
9393;DHT22;4736;52.508;13.422;2022-07-06T13:44:28;22.70;1.00
9393;DHT22;4736;52.508;13.422;2022-07-06T13:47:31;22.60;1.00
9393;DHT22;4736;52.508;13.422;2022-07-06T13:50:34;22.30;1.00
9393;DHT22;4736;52.508;13.422;2022-07-06T13:53:37;22.20;1.00
9393;DHT22;4736;52.508;13.422;2022-07-06T13:56:41;22.10;1.00
9393;DHT22;4736;52.508;13.422;2022-07-06T13:59:45;22.10;1.00
9393;DHT22;4736;52.508;13.422;2022-07-06T14:02:48;22.10;1.00
9393;DHT22;4736;52.508;13.422;2022-07-06T14:05:51;22.20;1.00
9393;DHT22;4736;52.508;13.422;2022-07-06T14:08:54;22.30;1.00
9393;DHT22;4736;52.508;13.422;2022-07-06T14:11:58;22.70;1.00
9393;DHT22;4736;52.508;13.422;2022-07-06T14:15:04;22.90;1.00
9393;DHT22;4736;52.508;13.422;2022-07-06T14:18:09;23.00;1.00
9393;DHT22;4736;52.508;13.422;2022-07-06T14:21:12;22.90;1.00
9393;DHT22;4736;52.508;13.422;2022-07-06T14:24:15;23.00;1.00
9393;DHT22;4736;52.508;13.422;2022-07-06T14:27:20;23.00;1.00
9393;DHT22;4736;52.508;13.422;2022-07-06T14:30:24;23.10;1.00
9393;DHT22;4736;52.508;13.422;2022-07-06T14:33:27;22.90;1.00
9393;DHT22;4736;52.508;13.422;2022-07-06T14:36:30;23.00;1.00
9393;DHT22;4736;52.508;13.422;2022-07-06T14:39:35;22.80;1.00
9393;DHT22;4736;52.508;13.422;2022-07-06T14:42:38;22.90;1.00
9393;DHT22;4736;52.508;13.422;2022-07-06T14:45:43;22.60;1.00
9393;DHT22;4736;52.508;13.422;2022-07-06T14:48:47;22.50;1.00
9393;DHT22;4736;52.508;13.422;2022-07-06T14:51:51;22.30;1.00
9393;DHT22;4736;52.508;13.422;2022-07-06T14:54:55;22.20;1.00
9393;DHT22;4736;52.508;13.422;2022-07-06T14:58:01;22.00;1.00
9393;DHT22;4736;52.508;13.422;2022-07-06T15:01:10;21.70;1.00
9393;DHT22;4736;52.508;13.422;2022-07-06T15:04:13;21.40;1.00
9393;DHT22;4736;52.508;13.422;2022-07-06T15:07:17;21.30;1.00
9393;DHT22;4736;52.508;13.422;2022-07-06T15:10:26;21.00;1.00
9393;DHT22;4736;52.508;13.422;2022-07-06T15:13:29;20.90;1.00
9393;DHT22;4736;52.508;13.422;2022-07-06T15:16:34;20.70;1.00
9393;DHT22;4736;52.508;13.422;2022-07-06T15:19:37;20.60;1.00
9393;DHT22;4736;52.508;13.422;2022-07-06T15:22:40;20.50;1.00
9393;DHT22;4736;52.508;13.422;2022-07-06T15:25:43;20.40;1.00
9393;DHT22;4736;52.508;13.422;2022-07-06T15:28:55;20.30;1.00
9393;DHT22;4736;52.508;13.422;2022-07-06T15:31:59;20.10;1.00
9393;DHT22;4736;52.508;13.422;2022-07-06T15:35:02;20.00;1.00
9393;DHT22;4736;52.508;13.422;2022-07-06T15:38:07;20.00;1.00
9393;DHT22;4736;52.508;13.422;2022-07-06T15:41:10;20.00;1.00
9393;DHT22;4736;52.508;13.422;2022-07-06T15:44:13;20.00;1.00
9393;DHT22;4736;52.508;13.422;2022-07-06T15:47:17;20.10;1.00
9393;DHT22;4736;52.508;13.422;2022-07-06T15:50:21;20.10;1.00
9393;DHT22;4736;52.508;13.422;2022-07-06T15:53:29;20.20;1.00
9393;DHT22;4736;52.508;13.422;2022-07-06T15:56:32;20.40;1.00
9393;DHT22;4736;52.508;13.422;2022-07-06T15:59:34;20.60;1.00
9393;DHT22;4736;52.508;13.422;2022-07-06T16:02:50;20.60;1.00
9393;DHT22;4736;52.508;13.422;2022-07-06T16:05:54;20.90;1.00
9393;DHT22;4736;52.508;13.422;2022-07-06T16:09:13;20.90;1.00
9393;DHT22;4736;52.508;13.422;2022-07-06T16:12:16;21.10;1.00
9393;DHT22;4736;52.508;13.422;2022-07-06T16:15:19;21.30;1.00
9393;DHT22;4736;52.508;13.422;2022-07-06T16:18:23;21.30;1.00
9393;DHT22;4736;52.508;13.422;2022-07-06T16:21:28;21.30;1.00
9393;DHT22;4736;52.508;13.422;2022-07-06T16:24:31;21.50;1.00
9393;DHT22;4736;52.508;13.422;2022-07-06T16:27:34;21.60;1.00
9393;DHT22;4736;52.508;13.422;2022-07-06T16:30:38;21.70;1.00
9393;DHT22;4736;52.508;13.422;2022-07-06T16:33:42;21.60;1.00
9393;DHT22;4736;52.508;13.422;2022-07-06T16:36:45;21.60;1.00
9393;DHT22;4736;52.508;13.422;2022-07-06T16:39:48;21.70;1.00
9393;DHT22;4736;52.508;13.422;2022-07-06T16:42:51;21.80;1.00
9393;DHT22;4736;52.508;13.422;2022-07-06T16:45:55;21.70;1.00
9393;DHT22;4736;52.508;13.422;2022-07-06T16:49:00;21.70;1.00
9393;DHT22;4736;52.508;13.422;2022-07-06T16:52:05;21.80;1.00
9393;DHT22;4736;52.508;13.422;2022-07-06T16:55:14;21.70;1.00
9393;DHT22;4736;52.508;13.422;2022-07-06T16:58:18;21.50;1.00
9393;DHT22;4736;52.508;13.422;2022-07-06T17:01:21;21.40;1.00
9393;DHT22;4736;52.508;13.422;2022-07-06T17:04:25;21.40;1.00
9393;DHT22;4736;52.508;13.422;2022-07-06T17:07:28;21.10;1.00
9393;DHT22;4736;52.508;13.422;2022-07-06T17:10:31;20.90;1.00
9393;DHT22;4736;52.508;13.422;2022-07-06T17:13:34;20.80;1.00
9393;DHT22;4736;52.508;13.422;2022-07-06T17:16:37;20.70;1.00
9393;DHT22;4736;52.508;13.422;2022-07-06T17:19:41;20.60;1.00
9393;DHT22;4736;52.508;13.422;2022-07-06T17:22:44;20.60;1.00
9393;DHT22;4736;52.508;13.422;2022-07-06T17:25:48;20.60;1.00
9393;DHT22;4736;52.508;13.422;2022-07-06T17:28:51;20.60;1.00
9393;DHT22;4736;52.508;13.422;2022-07-06T17:31:57;20.60;1.00
9393;DHT22;4736;52.508;13.422;2022-07-06T17:35:02;20.60;1.00
9393;DHT22;4736;52.508;13.422;2022-07-06T17:38:05;20.50;1.00
9393;DHT22;4736;52.508;13.422;2022-07-06T17:41:10;20.50;1.00
9393;DHT22;4736;52.508;13.422;2022-07-06T17:44:13;20.40;1.00
9393;DHT22;4736;52.508;13.422;2022-07-06T17:47:16;20.30;1.00
9393;DHT22;4736;52.508;13.422;2022-07-06T17:50:20;20.20;1.00
9393;DHT22;4736;52.508;13.422;2022-07-06T17:53:23;20.20;1.00
9393;DHT22;4736;52.508;13.422;2022-07-06T17:56:27;20.10;1.00
9393;DHT22;4736;52.508;13.422;2022-07-06T17:59:30;20.00;1.00
9393;DHT22;4736;52.508;13.422;2022-07-06T18:02:33;19.90;1.00
9393;DHT22;4736;52.508;13.422;2022-07-06T18:05:37;19.80;1.00
9393;DHT22;4736;52.508;13.422;2022-07-06T18:08:47;19.80;1.00
9393;DHT22;4736;52.508;13.422;2022-07-06T18:11:50;19.70;1.00
9393;DHT22;4736;52.508;13.422;2022-07-06T18:14:56;19.60;1.00
9393;DHT22;4736;52.508;13.422;2022-07-06T18:17:59;19.60;1.00
9393;DHT22;4736;52.508;13.422;2022-07-06T18:21:07;19.60;1.00
9393;DHT22;4736;52.508;13.422;2022-07-06T18:24:11;19.50;1.00
9393;DHT22;4736;52.508;13.422;2022-07-06T18:27:14;19.50;1.00
9393;DHT22;4736;52.508;13.422;2022-07-06T18:30:17;19.40;1.00
9393;DHT22;4736;52.508;13.422;2022-07-06T18:33:22;19.40;1.00
9393;DHT22;4736;52.508;13.422;2022-07-06T18:36:30;19.30;1.00
9393;DHT22;4736;52.508;13.422;2022-07-06T18:39:33;19.20;1.00
9393;DHT22;4736;52.508;13.422;2022-07-06T18:42:36;19.20;1.00
9393;DHT22;4736;52.508;13.422;2022-07-06T18:45:41;19.20;1.00
9393;DHT22;4736;52.508;13.422;2022-07-06T18:48:45;19.20;1.00
9393;DHT22;4736;52.508;13.422;2022-07-06T18:51:49;19.10;1.00
9393;DHT22;4736;52.508;13.422;2022-07-06T18:54:52;19.00;1.00
9393;DHT22;4736;52.508;13.422;2022-07-06T18:57:56;19.00;1.00
9393;DHT22;4736;52.508;13.422;2022-07-06T19:00:59;19.00;1.00
9393;DHT22;4736;52.508;13.422;2022-07-06T19:04:04;19.00;1.00
9393;DHT22;4736;52.508;13.422;2022-07-06T19:07:08;19.00;1.00
9393;DHT22;4736;52.508;13.422;2022-07-06T19:10:14;19.00;1.00
9393;DHT22;4736;52.508;13.422;2022-07-06T19:13:17;19.00;1.00
9393;DHT22;4736;52.508;13.422;2022-07-06T19:16:23;18.90;1.00
9393;DHT22;4736;52.508;13.422;2022-07-06T19:19:26;18.90;1.00
9393;DHT22;4736;52.508;13.422;2022-07-06T19:22:30;18.80;1.00
9393;DHT22;4736;52.508;13.422;2022-07-06T19:25:33;18.80;1.00
9393;DHT22;4736;52.508;13.422;2022-07-06T19:28:36;18.70;1.00
9393;DHT22;4736;52.508;13.422;2022-07-06T19:31:39;18.70;1.00
9393;DHT22;4736;52.508;13.422;2022-07-06T19:34:42;18.60;1.00
9393;DHT22;4736;52.508;13.422;2022-07-06T19:37:46;18.50;1.00
9393;DHT22;4736;52.508;13.422;2022-07-06T19:40:49;18.40;1.00
9393;DHT22;4736;52.508;13.422;2022-07-06T19:43:52;18.40;1.00
9393;DHT22;4736;52.508;13.422;2022-07-06T19:46:56;18.30;1.00
9393;DHT22;4736;52.508;13.422;2022-07-06T19:49:59;18.20;1.00
9393;DHT22;4736;52.508;13.422;2022-07-06T19:53:04;18.20;1.00
9393;DHT22;4736;52.508;13.422;2022-07-06T19:56:07;18.20;1.00
9393;DHT22;4736;52.508;13.422;2022-07-06T19:59:11;18.10;1.00
9393;DHT22;4736;52.508;13.422;2022-07-06T20:02:15;18.10;1.00
9393;DHT22;4736;52.508;13.422;2022-07-06T20:05:18;18.00;1.00
9393;DHT22;4736;52.508;13.422;2022-07-06T20:08:23;18.00;1.00
9393;DHT22;4736;52.508;13.422;2022-07-06T20:11:26;17.90;1.00